This is the latest recevied weather packets stored in our database for station/object K8RRT. If no packets are shown the sender has not sent any weather packets the latest 10 day(s).
| Time | Temp. | Humidity | Pressure | Rain* | Wind** | Luminosity | Snow |
|---|---|---|---|---|---|---|---|
| 1787785219 | 27.22° C | 76% | 1010.9 hPa | 0 mm | - | 76 W/m² | - |
| 1787784914 | 27.22° C | 76% | 1010.8 hPa | 0 mm | - | 91 W/m² | - |
| 1787784612 | 27.78° C | 73% | 1010.9 hPa | 0 mm | - | 98 W/m² | - |
| 1787784311 | 27.78° C | 73% | 1010.9 hPa | 0 mm | - | 93 W/m² | - |
| 1787784007 | 27.22° C | 71% | 1010.9 hPa | 0 mm | - | 141 W/m² | - |
| 1787783703 | 27.78° C | 73% | 1011 hPa | 0 mm | - | 107 W/m² | - |
| 1787783402 | 27.78° C | 71% | 1010.9 hPa | 0 mm | - | 167 W/m² | - |
| 1787783098 | 27.78° C | 70% | 1010.8 hPa | 0 mm | - | 171 W/m² | - |
| 1787782797 | 27.78° C | 71% | 1010.9 hPa | 0 mm | - | 144 W/m² | - |
| 1787782493 | 27.78° C | 71% | 1011 hPa | 0 mm | - | 161 W/m² | - |
| 1787782187 | 27.78° C | 73% | 1011.1 hPa | 0 mm | - | 157 W/m² | - |
| 1787781883 | 27.78° C | 71% | 1011.1 hPa | 0 mm | - | 163 W/m² | - |
| 1787781581 | 27.22° C | 74% | 1011.2 hPa | 0 mm | - | 156 W/m² | - |
| 1787781281 | 27.22° C | 74% | 1011.3 hPa | 0 mm | - | 151 W/m² | - |
| 1787780978 | 27.22° C | 73% | 1011.4 hPa | 0 mm | - | 137 W/m² | - |
| 1787780673 | 27.22° C | 73% | 1011.3 hPa | 0 mm | - | 135 W/m² | - |
| 1787780368 | 27.22° C | 72% | 1011.4 hPa | 0 mm | - | 143 W/m² | - |
| 1787780065 | 27.22° C | 70% | 1011.3 hPa | 0 mm | - | 149 W/m² | - |
| 1787779759 | 27.22° C | 70% | 1011.4 hPa | 0 mm | - | 156 W/m² | - |
| 1787779459 | 27.22° C | 71% | 1011.2 hPa | 0 mm | - | 160 W/m² | - |
| 1787779153 | 27.22° C | 70% | 1011.3 hPa | 0 mm | - | 160 W/m² | - |
| 1787778848 | 27.22° C | 71% | 1011.3 hPa | 0 mm | - | 159 W/m² | - |
| 1787778544 | 27.22° C | 69% | 1011.1 hPa | 0 mm | - | 164 W/m² | - |
| 1787778240 | 27.22° C | 67% | 1011.3 hPa | 0 mm | - | 180 W/m² | - |
| 1787777939 | 27.78° C | 66% | 1011.6 hPa | 0 mm | - | 186 W/m² | - |
* Rain latest hour (hover to see other rain measurements)
** Current wind speed in m/s (hover to see current wind gust speed)